Time;durP1;ratioP1;P1;durP2;ratioP2;P2;SDS_P1;SDS_P2;PMS_P1;PMS_P2;Temp;Humidity;BMP_temperature;BMP_pressure;BME280_temperature;BME280_humidity;BME280_pressure;Samples;Min_cycle;Max_cycle;Signal;HPM_P1;HPM_P2
2021/10/26 00:01:46;;;;;;;;;17.00;14.50;;;;;12.38;84.79;101868.13;5034644;28;50738;-70
2021/10/26 00:04:11;;;;;;;;;19.75;17.25;;;;;12.26;84.88;101851.78;5034643;28;45700;-70
2021/10/26 00:06:37;;;;;;;;;24.00;17.75;;;;;12.29;84.67;101858.75;5033445;28;45475;-70
2021/10/26 00:09:04;;;;;;;;;18.25;15.25;;;;;12.25;84.67;101868.50;5033055;28;46122;-70
2021/10/26 00:11:30;;;;;;;;;23.00;16.25;;;;;12.22;84.60;101870.41;5035054;28;45770;-70
2021/10/26 00:13:56;;;;;;;;;25.00;18.50;;;;;12.15;84.71;101858.31;5034710;28;45426;-70
2021/10/26 00:16:21;;;;;;;;;18.25;15.00;;;;;12.13;84.42;101870.69;5034456;28;45581;-70
2021/10/26 00:18:47;;;;;;;;;15.00;15.00;;;;;12.06;84.70;101862.13;5033748;28;45363;-70
2021/10/26 00:21:12;;;;;;;;;19.25;13.00;;;;;12.04;84.61;101858.66;5034663;28;45393;-70
2021/10/26 00:23:38;;;;;;;;;22.75;16.50;;;;;11.98;84.74;101856.22;5032999;28;45489;-70
2021/10/26 00:26:06;;;;;;;;;20.50;17.50;;;;;11.98;84.72;101864.13;5016115;28;45364;-70
2021/10/26 00:28:32;;;;;;;;;25.50;14.75;;;;;11.95;84.75;101859.81;5034472;28;45648;-70
2021/10/26 00:30:58;;;;;;;;;17.75;13.00;;;;;11.86;84.70;101852.19;5034329;28;45821;-70
2021/10/26 00:33:23;;;;;;;;;18.25;15.00;;;;;11.79;84.75;101858.50;5034251;28;45515;-70
2021/10/26 00:35:49;;;;;;;;;16.25;15.25;;;;;11.77;84.69;101861.19;5034879;28;45486;-70
2021/10/26 00:38:14;;;;;;;;;19.75;16.00;;;;;11.79;84.56;101874.31;5033375;28;46269;-70
2021/10/26 00:40:42;;;;;;;;;19.25;15.75;;;;;11.69;84.51;101867.56;5033385;28;45470;-70
2021/10/26 00:43:08;;;;;;;;;17.25;14.00;;;;;11.71;84.90;101889.47;5032824;28;45451;-70
2021/10/26 00:45:33;;;;;;;;;18.25;13.75;;;;;11.67;84.61;101887.84;5033545;28;45399;-70
2021/10/26 00:47:58;;;;;;;;;17.25;13.50;;;;;11.63;84.51;101888.81;5032982;28;45730;-70
2021/10/26 00:50:24;;;;;;;;;20.00;17.50;;;;;11.58;84.46;101878.41;5034449;28;45383;-70
2021/10/26 00:52:49;;;;;;;;;16.75;13.25;;;;;11.56;84.54;101884.66;5034225;28;45414;-70
2021/10/26 00:55:14;;;;;;;;;15.75;11.25;;;;;11.46;84.67;101878.78;5034845;28;45337;-70
2021/10/26 00:57:40;;;;;;;;;18.50;14.25;;;;;11.42;84.25;101877.13;5033215;28;46105;-70
2021/10/26 01:00:06;;;;;;;;;19.25;16.25;;;;;11.46;84.28;101891.94;5033092;28;45433;-70
2021/10/26 01:02:31;;;;;;;;;16.25;13.25;;;;;11.41;84.21;101889.44;5034393;28;45658;-70
2021/10/26 01:04:57;;;;;;;;;15.00;12.00;;;;;11.37;84.09;101886.94;5033966;28;45830;-70
2021/10/26 01:07:23;;;;;;;;;13.25;10.50;;;;;11.33;84.09;101882.66;5029488;28;46143;-70
2021/10/26 01:09:48;;;;;;;;;18.25;12.75;;;;;11.28;84.23;101879.31;5033649;28;45411;-70
2021/10/26 01:12:14;;;;;;;;;16.25;14.75;;;;;11.29;84.22;101895.06;5013154;28;45342;-70
2021/10/26 01:14:40;;;;;;;;;12.75;12.25;;;;;11.18;83.96;101878.69;5033491;28;45477;-70
2021/10/26 01:17:08;;;;;;;;;17.00;14.50;;;;;11.19;84.07;101886.53;5032904;28;45489;-70
2021/10/26 01:19:47;;;;;;;;;15.00;15.00;;;;;11.18;84.05;101897.13;5033209;28;45835;-70
2021/10/26 01:22:15;;;;;;;;;18.50;13.25;;;;;11.14;84.02;101890.22;5033171;28;45331;-70
2021/10/26 01:24:41;;;;;;;;;17.25;12.25;;;;;11.10;83.93;101897.31;5033758;28;45500;-70
2021/10/26 01:27:07;;;;;;;;;16.25;15.00;;;;;11.07;84.05;101891.28;5033352;28;46152;-70
2021/10/26 01:29:33;;;;;;;;;15.25;13.75;;;;;11.04;83.63;101891.34;5032366;28;45434;-70
2021/10/26 01:32:03;;;;;;;;;17.50;15.00;;;;;11.00;83.96;101892.31;5033462;28;45489;-70
2021/10/26 01:34:29;;;;;;;;;16.00;14.00;;;;;10.95;83.95;101889.81;5034717;28;45347;-70
2021/10/26 01:36:58;;;;;;;;;23.50;15.50;;;;;10.95;84.10;101892.44;5032413;28;45502;-70
2021/10/26 01:39:23;;;;;;;;;19.25;16.00;;;;;10.89;84.21;101892.59;5032391;28;45581;-70
2021/10/26 01:41:49;;;;;;;;;18.25;14.00;;;;;10.88;83.95;101893.53;5033160;28;46351;-70
2021/10/26 01:44:14;;;;;;;;;17.50;14.25;;;;;10.83;83.92;101890.16;5033290;28;45505;-70
2021/10/26 01:46:40;;;;;;;;;23.25;14.50;;;;;10.82;83.97;101896.31;5031911;28;46451;-70
2021/10/26 01:49:05;;;;;;;;;15.50;14.00;;;;;10.78;83.79;101889.41;5033214;28;45499;-70
2021/10/26 01:51:30;;;;;;;;;16.25;11.50;;;;;10.75;83.62;101892.09;5033527;28;45527;-70
2021/10/26 01:53:55;;;;;;;;;21.50;16.00;;;;;10.72;83.92;101898.31;5032455;28;45394;-70
2021/10/26 01:56:21;;;;;;;;;15.00;14.50;;;;;10.68;84.06;101897.50;5014910;28;56601;-70
2021/10/26 01:58:47;;;;;;;;;16.25;15.25;;;;;10.66;83.74;101901.09;5032985;28;45501;-70
2021/10/26 02:01:13;;;;;;;;;16.00;13.75;;;;;10.63;83.69;101899.38;5033684;28;45393;-70
2021/10/26 02:03:38;;;;;;;;;16.75;14.00;;;;;10.61;83.74;101900.34;5032098;28;45408;-70
2021/10/26 02:06:04;;;;;;;;;21.00;16.75;;;;;10.55;83.80;101893.47;5032663;28;45390;-70
2021/10/26 02:08:30;;;;;;;;;19.00;15.75;;;;;10.47;83.65;101894.53;5032274;28;45785;-70
2021/10/26 02:10:55;;;;;;;;;19.75;14.00;;;;;10.51;83.48;101901.47;5023578;28;45526;-70
2021/10/26 02:13:20;;;;;;;;;14.50;13.25;;;;;10.45;83.90;101902.47;5033797;28;45483;-70
2021/10/26 02:15:46;;;;;;;;;13.00;11.50;;;;;10.43;83.61;101901.63;5032625;28;52619;-70
2021/10/26 02:18:12;;;;;;;;;18.50;16.00;;;;;10.42;83.83;101900.75;5032272;28;45564;-70
2021/10/26 02:20:37;;;;;;;;;20.75;16.25;;;;;10.39;83.37;101886.84;5014412;28;45448;-70
2021/10/26 02:23:02;;;;;;;;;19.00;15.00;;;;;10.39;83.50;101898.22;5033159;28;45486;-70
2021/10/26 02:25:28;;;;;;;;;20.50;15.25;;;;;10.36;83.45;101900.06;5032365;28;58771;-70
2021/10/26 02:27:54;;;;;;;;;18.25;15.00;;;;;10.33;83.63;101900.97;5032712;28;45448;-70
2021/10/26 02:30:19;;;;;;;;;17.50;13.50;;;;;10.31;83.58;101902.78;5033951;28;45624;-70
2021/10/26 02:32:45;;;;;;;;;16.25;12.00;;;;;10.28;83.61;101902.84;5036407;28;45648;-70
2021/10/26 02:35:10;;;;;;;;;14.50;11.00;;;;;10.14;83.51;101887.38;5035496;28;46145;-70
2021/10/26 02:37:36;;;;;;;;;13.75;12.50;;;;;10.24;83.55;101910.84;5035517;28;45445;-70
2021/10/26 02:40:02;;;;;;;;;18.50;14.00;;;;;10.22;83.59;101912.59;5036694;28;45748;-70
2021/10/26 02:42:27;;;;;;;;;17.25;14.00;;;;;10.19;83.61;101916.19;5035873;28;45702;-70
2021/10/26 02:44:52;;;;;;;;;13.50;13.50;;;;;10.17;83.84;101913.56;5035068;28;48304;-70
2021/10/26 02:47:17;;;;;;;;;18.75;13.25;;;;;10.12;83.52;101910.19;5034921;28;45546;-70
2021/10/26 02:49:43;;;;;;;;;14.00;14.00;;;;;10.13;83.54;101906.69;5035943;28;45451;-70
2021/10/26 02:52:08;;;;;;;;;12.75;12.75;;;;;10.13;83.69;101908.44;5036047;28;45508;-70
2021/10/26 02:54:34;;;;;;;;;15.00;13.00;;;;;10.12;83.56;101910.19;5051062;28;46057;-70
2021/10/26 02:56:59;;;;;;;;;15.75;15.75;;;;;10.10;83.82;101911.13;5035297;28;45524;-70
2021/10/26 02:59:24;;;;;;;;;17.25;14.25;;;;;10.10;84.03;101913.75;5035421;28;45465;-70
2021/10/26 03:01:50;;;;;;;;;17.00;15.25;;;;;10.07;83.53;101908.56;5035936;28;45416;-70
2021/10/26 03:04:15;;;;;;;;;25.00;19.25;;;;;10.08;84.43;101919.03;5036442;28;47050;-70
2021/10/26 03:06:43;;;;;;;;;25.00;19.75;;;;;10.02;84.75;101908.66;5035557;28;45367;-70
2021/10/26 03:09:08;;;;;;;;;25.50;15.50;;;;;10.10;84.12;101925.13;5033952;28;45474;-70
2021/10/26 03:11:34;;;;;;;;;21.50;19.50;;;;;10.08;84.12;101921.66;5035242;28;45610;-70
2021/10/26 03:13:59;;;;;;;;;27.75;18.25;;;;;10.07;83.96;101927.78;5034566;28;45453;-70
2021/10/26 03:16:24;;;;;;;;;20.00;18.00;;;;;9.98;84.31;101908.78;5035112;28;45499;-69
2021/10/26 03:18:50;;;;;;;;;16.75;14.50;;;;;9.97;84.18;101915.78;5017120;28;45673;-69
2021/10/26 03:21:15;;;;;;;;;21.25;18.00;;;;;10.02;84.42;101932.28;5035666;28;45419;-69
2021/10/26 03:23:41;;;;;;;;;22.75;17.50;;;;;10.00;84.12;101923.59;5034592;28;46031;-68
2021/10/26 03:26:07;;;;;;;;;16.25;12.50;;;;;9.95;84.41;101912.31;5017075;28;45449;-68
2021/10/26 03:28:32;;;;;;;;;17.00;15.25;;;;;9.99;84.58;101926.25;5034968;28;45442;-68
2021/10/26 03:31:01;;;;;;;;;13.75;13.25;;;;;9.90;84.51;101922.91;5035539;28;45383;-68
2021/10/26 03:33:26;;;;;;;;;17.00;15.50;;;;;9.87;85.28;101914.25;5035173;28;47503;-68
2021/10/26 03:35:54;;;;;;;;;14.25;10.75;;;;;10.02;85.48;101929.66;5034750;28;45810;-68
2021/10/26 03:38:19;;;;;;;;;17.25;14.25;;;;;10.03;85.11;101938.44;5035522;28;45494;-68
2021/10/26 03:40:44;;;;;;;;;10.75;8.50;;;;;10.03;85.16;101943.69;5033812;28;45421;-68
2021/10/26 03:43:10;;;;;;;;;15.25;13.25;;;;;10.03;85.15;101927.94;5034860;28;46352;-68
2021/10/26 03:45:35;;;;;;;;;18.25;12.25;;;;;10.06;85.63;101943.59;5034346;28;45510;-68
2021/10/26 03:48:00;;;;;;;;;12.75;11.75;;;;;10.09;86.02;101949.66;5033758;28;45364;-68
2021/10/26 03:50:26;;;;;;;;;14.50;13.25;;;;;10.10;85.93;101938.25;5034323;28;45429;-68
2021/10/26 03:52:51;;;;;;;;;19.00;11.75;;;;;10.10;85.83;101940.00;5032039;28;46053;-68
2021/10/26 03:55:16;;;;;;;;;14.75;13.50;;;;;10.12;86.16;101940.84;5031778;28;45545;-68
2021/10/26 03:57:42;;;;;;;;;12.75;12.00;;;;;10.11;85.72;101939.97;5033281;28;45579;-68
2021/10/26 04:00:08;;;;;;;;;11.50;10.75;;;;;10.13;86.08;101939.97;5031953;28;45514;-68
2021/10/26 04:02:38;;;;;;;;;13.75;12.50;;;;;10.13;86.03;101937.34;5027225;28;46286;-68
2021/10/26 04:05:13;;;;;;;;;12.50;10.50;;;;;10.12;86.73;101932.94;5014868;28;45763;-68
2021/10/26 04:07:52;;;;;;;;;12.25;12.25;;;;;10.16;86.62;101940.75;5033645;28;45297;-68
2021/10/26 04:10:30;;;;;;;;;12.75;9.75;;;;;10.15;86.54;101941.63;5034530;28;45388;-68
2021/10/26 04:12:55;;;;;;;;;12.25;9.75;;;;;10.15;86.40;101946.03;5034925;28;47210;-68
2021/10/26 04:15:20;;;;;;;;;8.75;8.75;;;;;10.16;86.33;101943.38;5034320;28;46232;-68
2021/10/26 04:17:45;;;;;;;;;12.25;7.75;;;;;10.16;86.26;101950.38;5033760;28;46366;-68
2021/10/26 04:20:11;;;;;;;;;14.50;10.00;;;;;10.14;86.44;101950.44;5034240;28;45526;-68
2021/10/26 04:22:36;;;;;;;;;10.00;10.00;;;;;10.14;86.64;101960.94;5034427;28;46919;-68
2021/10/26 04:25:01;;;;;;;;;12.00;10.25;;;;;10.15;86.63;101962.66;5038358;28;47473;-68
2021/10/26 04:27:27;;;;;;;;;9.75;9.75;;;;;10.16;86.86;101953.88;5031087;28;45359;-68
2021/10/26 04:29:52;;;;;;;;;10.50;10.25;;;;;9.96;86.76;101928.94;5034326;28;45447;-69
2021/10/26 04:32:17;;;;;;;;;13.50;9.75;;;;;10.17;86.76;101958.22;5034541;28;48194;-68
2021/10/26 04:34:43;;;;;;;;;14.00;10.50;;;;;10.15;86.60;101967.91;5037262;28;45376;-68
2021/10/26 04:37:11;;;;;;;;;11.25;9.75;;;;;10.10;86.47;101961.03;5016256;28;46439;-68
2021/10/26 04:39:37;;;;;;;;;10.00;9.00;;;;;10.13;86.60;101964.47;5034107;28;45359;-68
2021/10/26 04:42:07;;;;;;;;;14.00;8.50;;;;;10.10;85.98;101969.78;5033909;28;46867;-68
2021/10/26 04:44:32;;;;;;;;;12.75;10.75;;;;;10.08;86.39;101971.56;5033439;28;45447;-69
2021/10/26 04:46:58;;;;;;;;;12.00;9.00;;;;;10.07;86.45;101977.69;5034315;28;45597;-70
2021/10/26 04:49:23;;;;;;;;;10.75;9.50;;;;;10.04;86.22;101966.41;5022483;28;45480;-70
2021/10/26 04:51:48;;;;;;;;;8.75;7.75;;;;;10.03;86.42;101973.44;5033710;28;45954;-69
2021/10/26 04:54:14;;;;;;;;;10.00;9.50;;;;;9.96;86.23;101968.31;5033433;28;45241;-70
2021/10/26 04:56:39;;;;;;;;;10.50;10.50;;;;;9.99;86.03;101979.63;5033506;28;45430;-69
2021/10/26 04:59:04;;;;;;;;;14.25;12.50;;;;;9.93;86.53;101971.91;5033550;28;45288;-70
2021/10/26 05:01:30;;;;;;;;;14.25;10.25;;;;;9.88;86.38;101961.47;5032532;28;46383;-70
2021/10/26 05:03:55;;;;;;;;;13.25;10.50;;;;;10.00;86.16;101986.63;5032254;28;45402;-70
2021/10/26 05:06:21;;;;;;;;;14.75;10.75;;;;;10.03;87.06;101986.56;5033743;28;45344;-70
2021/10/26 05:08:52;;;;;;;;;24.25;15.25;;;;;10.12;86.96;101993.38;5033485;28;45548;-70
2021/10/26 05:11:17;;;;;;;;;20.25;15.50;;;;;10.17;86.88;101992.38;5033959;28;45942;-70
2021/10/26 05:13:43;;;;;;;;;25.50;17.75;;;;;10.23;87.21;101987.88;5033632;28;45423;-70
2021/10/26 05:16:08;;;;;;;;;17.75;13.75;;;;;10.29;87.36;101986.03;5034512;28;46326;-70
2021/10/26 05:18:36;;;;;;;;;20.00;14.00;;;;;10.36;87.28;101984.13;5032979;28;45414;-70
2021/10/26 05:21:04;;;;;;;;;20.00;16.00;;;;;10.40;87.11;101985.81;5031958;28;45420;-70
2021/10/26 05:23:30;;;;;;;;;24.75;15.00;;;;;10.44;87.20;101987.47;5033736;28;45920;-69
2021/10/26 05:25:55;;;;;;;;;21.75;18.50;;;;;10.46;87.07;101988.28;5034441;28;46750;-70
2021/10/26 05:28:21;;;;;;;;;25.00;17.75;;;;;10.49;87.25;101996.09;5033963;28;45601;-70
2021/10/26 05:30:46;;;;;;;;;18.75;14.00;;;;;10.47;87.52;101992.66;5032448;28;46252;-70
2021/10/26 05:33:11;;;;;;;;;18.75;12.00;;;;;10.53;87.14;102005.66;5033543;28;45398;-70
2021/10/26 05:35:37;;;;;;;;;18.00;14.00;;;;;10.53;87.33;102008.28;5033521;28;45536;-70
2021/10/26 05:38:02;;;;;;;;;18.00;15.50;;;;;10.53;87.00;102008.28;5033151;28;45301;-70
2021/10/26 05:40:28;;;;;;;;;19.50;14.50;;;;;10.54;87.04;102015.25;5033077;28;46297;-70
2021/10/26 05:42:53;;;;;;;;;23.00;14.00;;;;;10.53;86.95;102012.66;5034030;28;45493;-70
2021/10/26 05:45:18;;;;;;;;;20.75;13.25;;;;;10.49;87.12;102027.63;5033468;28;45406;-70
2021/10/26 05:47:45;;;;;;;;;26.75;15.00;;;;;10.47;86.97;102028.56;5033074;28;45414;-69
2021/10/26 05:50:11;;;;;;;;;14.50;13.00;;;;;10.47;86.97;102033.84;5032575;28;45453;-70
2021/10/26 05:52:37;;;;;;;;;14.50;12.25;;;;;10.41;86.70;102021.69;5033338;28;45320;-69
2021/10/26 05:55:03;;;;;;;;;16.50;13.50;;;;;10.48;86.80;102035.56;5033035;28;45585;-70
2021/10/26 05:57:31;;;;;;;;;14.25;13.00;;;;;10.40;87.08;102015.56;5033848;28;46448;-70
2021/10/26 05:59:56;;;;;;;;;16.00;12.25;;;;;10.47;86.74;102033.84;5035059;28;45661;-70
2021/10/26 06:02:21;;;;;;;;;17.50;12.25;;;;;10.43;87.08;102036.53;5034303;28;49370;-70
2021/10/26 06:04:46;;;;;;;;;16.75;13.75;;;;;10.43;87.01;102033.88;5033799;28;47057;-70
2021/10/26 06:07:12;;;;;;;;;16.25;14.25;;;;;10.46;86.99;102038.22;5037354;28;45548;-70
2021/10/26 06:09:37;;;;;;;;;18.25;14.75;;;;;10.48;86.84;102044.31;5016494;28;45593;-70
2021/10/26 06:12:04;;;;;;;;;14.25;12.00;;;;;10.51;86.95;102052.13;5035686;28;45610;-70
2021/10/26 06:14:30;;;;;;;;;20.00;15.00;;;;;10.56;86.95;102049.41;5036418;28;45482;-70
2021/10/26 06:16:55;;;;;;;;;12.75;12.25;;;;;10.54;86.86;102048.56;5030580;28;45546;-70
2021/10/26 06:19:21;;;;;;;;;21.25;13.75;;;;;10.60;86.81;102057.19;5035742;28;45806;-70
2021/10/26 06:21:48;;;;;;;;;14.75;13.75;;;;;10.57;86.68;102041.47;5035445;28;45791;-70
2021/10/26 06:24:14;;;;;;;;;14.75;13.25;;;;;10.61;86.55;102044.91;5035559;28;46839;-70
2021/10/26 06:26:39;;;;;;;;;20.25;13.75;;;;;10.65;86.44;102062.38;5035047;28;45439;-70
2021/10/26 06:29:06;;;;;;;;;22.75;12.25;;;;;10.61;86.04;102064.19;5034911;28;46154;-70
2021/10/26 06:31:31;;;;;;;;;13.75;10.50;;;;;10.54;86.48;102062.56;5034076;28;45851;-70
2021/10/26 06:33:57;;;;;;;;;21.00;10.50;;;;;10.51;86.09;102059.16;5035858;28;45661;-70
2021/10/26 06:36:23;;;;;;;;;13.00;12.00;;;;;10.51;86.51;102057.41;5035038;28;45509;-70
2021/10/26 06:38:48;;;;;;;;;12.00;11.75;;;;;10.50;86.67;102065.31;5035464;28;46216;-70
2021/10/26 06:41:13;;;;;;;;;15.50;13.00;;;;;10.48;87.06;102067.09;5035439;28;45451;-70
2021/10/26 06:43:39;;;;;;;;;17.00;14.00;;;;;10.48;86.97;102075.84;5035778;28;46047;-70
2021/10/26 06:46:04;;;;;;;;;16.25;15.00;;;;;10.52;86.97;102068.78;5036000;28;45663;-71
2021/10/26 06:48:30;;;;;;;;;17.75;14.00;;;;;10.52;87.35;102061.75;5034218;28;45582;-71
2021/10/26 06:50:55;;;;;;;;;18.00;16.75;;;;;10.62;87.86;102078.19;5033356;28;45545;-69
2021/10/26 06:53:22;;;;;;;;;20.00;13.75;;;;;10.65;88.24;102078.13;5034137;28;45447;-69
2021/10/26 06:55:48;;;;;;;;;12.25;12.25;;;;;10.69;86.88;102085.91;5033399;28;45544;-69
2021/10/26 06:58:14;;;;;;;;;17.50;14.50;;;;;10.73;86.65;102096.38;5034485;28;45941;-69
2021/10/26 07:00:42;;;;;;;;;16.50;13.25;;;;;10.72;86.19;102103.38;5034162;28;50240;-69
2021/10/26 07:03:08;;;;;;;;;15.75;12.75;;;;;10.61;86.18;102084.34;5033917;28;45540;-69
2021/10/26 07:05:33;;;;;;;;;17.00;14.00;;;;;10.66;86.10;102093.88;5034034;28;45771;-69
2021/10/26 07:07:58;;;;;;;;;12.50;10.25;;;;;10.69;86.20;102093.78;5034368;28;45998;-69
2021/10/26 07:10:24;;;;;;;;;14.25;11.50;;;;;10.63;86.12;102099.19;5030272;28;45695;-70
2021/10/26 07:12:50;;;;;;;;;17.75;14.50;;;;;10.64;86.24;102100.91;5033644;28;45511;-69
2021/10/26 07:15:16;;;;;;;;;16.50;12.50;;;;;10.73;86.25;102115.63;5035247;28;45502;-70
2021/10/26 07:17:42;;;;;;;;;16.50;13.25;;;;;10.77;86.82;102121.69;5032971;28;46324;-70
2021/10/26 07:20:15;;;;;;;;;18.50;14.75;;;;;10.80;86.80;102118.97;5035142;28;45800;-70
2021/10/26 07:22:49;;;;;;;;;14.75;9.25;;;;;10.83;87.61;102113.66;5034969;28;45539;-70
2021/10/26 07:25:15;;;;;;;;;19.00;13.75;;;;;10.87;88.53;102124.09;5054208;28;45506;-70
2021/10/26 07:27:40;;;;;;;;;13.25;11.00;;;;;10.86;87.74;102114.47;5042946;28;46265;-70
2021/10/26 07:30:09;;;;;;;;;15.75;14.25;;;;;10.89;88.18;102121.41;5041172;28;45523;-70
2021/10/26 07:32:34;;;;;;;;;12.50;12.50;;;;;10.95;88.50;102124.78;5033110;28;45685;-70
2021/10/26 07:35:00;;;;;;;;;17.00;14.00;;;;;11.00;87.89;102132.56;5035223;28;45419;-70
2021/10/26 07:37:33;;;;;;;;;20.25;12.75;;;;;11.10;87.68;102136.72;5034969;28;46054;-70
2021/10/26 07:39:58;;;;;;;;;18.25;13.50;;;;;11.20;87.73;102151.41;5035818;28;45852;-70
2021/10/26 07:42:24;;;;;;;;;13.75;12.50;;;;;11.30;87.62;102149.41;5039758;28;45979;-70
2021/10/26 07:44:50;;;;;;;;;17.50;14.00;;;;;11.39;87.13;102159.75;5038616;28;45649;-70
2021/10/26 07:47:16;;;;;;;;;22.00;11.75;;;;;11.47;87.17;102160.41;5049702;28;45787;-70
2021/10/26 07:49:43;;;;;;;;;15.75;13.00;;;;;11.56;87.06;102166.38;5034446;28;45474;-70
2021/10/26 07:52:10;;;;;;;;;17.50;13.25;;;;;11.60;87.49;102163.63;5035662;28;45561;-70
2021/10/26 07:54:35;;;;;;;;;14.50;13.50;;;;;11.67;87.43;102173.09;5038442;28;45460;-70
2021/10/26 07:57:01;;;;;;;;;21.00;15.50;;;;;11.73;86.98;102165.03;5038647;28;46106;-70
2021/10/26 07:59:27;;;;;;;;;16.50;14.00;;;;;11.79;86.77;102171.06;5038024;28;45489;-70
2021/10/26 08:01:52;;;;;;;;;19.00;14.75;;;;;11.80;86.96;102185.94;5033100;28;45462;-70
2021/10/26 08:04:18;;;;;;;;;16.75;14.25;;;;;11.85;86.96;102186.72;5034815;28;45423;-70
2021/10/26 08:06:45;;;;;;;;;53.50;43.25;;;;;11.95;86.93;102196.13;5033853;28;45493;-70
2021/10/26 08:09:11;;;;;;;;;17.00;14.25;;;;;12.04;86.21;102192.41;5034298;28;45391;-69
2021/10/26 08:11:37;;;;;;;;;25.50;16.50;;;;;12.09;86.85;102191.38;5041212;28;45579;-69
2021/10/26 08:14:03;;;;;;;;;18.50;16.50;;;;;12.13;86.46;102193.03;5035427;28;45878;-70
2021/10/26 08:16:29;;;;;;;;;25.00;16.75;;;;;12.18;86.46;102185.03;5037430;28;45901;-69
2021/10/26 08:18:54;;;;;;;;;18.25;17.25;;;;;12.19;86.24;102176.19;5034250;28;45499;-69
2021/10/26 08:21:19;;;;;;;;;25.50;18.50;;;;;12.27;86.24;102177.75;5038829;28;45439;-70
2021/10/26 08:23:46;;;;;;;;;24.75;18.75;;;;;12.34;85.74;102175.78;5039386;28;45518;-69
2021/10/26 08:26:18;;;;;;;;;24.00;14.75;;;;;12.42;85.93;102173.78;5036938;28;45295;-70
2021/10/26 08:28:43;;;;;;;;;24.50;19.50;;;;;12.48;85.12;102170.16;5041308;28;45363;-70
2021/10/26 08:34:01;;;;;;;;;26.00;17.00;;;;;12.71;85.29;102177.41;5034640;28;45474;-69
2021/10/26 08:36:27;;;;;;;;;21.50;16.50;;;;;12.83;85.24;102170.88;5037711;28;45415;-69
2021/10/26 08:38:52;;;;;;;;;18.25;15.25;;;;;12.83;84.58;102165.63;5037358;28;45297;-69
2021/10/26 08:41:19;;;;;;;;;23.00;18.00;;;;;12.92;84.20;102175.91;5037259;28;46297;-70
2021/10/26 08:43:45;;;;;;;;;25.50;18.50;;;;;12.95;84.21;102173.19;5040270;28;45703;-71
2021/10/26 08:46:12;;;;;;;;;14.00;12.75;;;;;13.06;84.23;102173.72;5037100;28;45482;-70
2021/10/26 08:48:40;;;;;;;;;21.75;14.50;;;;;13.12;83.82;102168.25;5014895;28;45950;-70
2021/10/26 08:51:06;;;;;;;;;20.50;16.50;;;;;13.15;83.32;102168.13;5033861;28;45450;-70
2021/10/26 08:53:32;;;;;;;;;19.50;17.25;;;;;13.29;83.29;102180.97;5032194;28;45545;-70
2021/10/26 08:56:00;;;;;;;;;25.50;17.00;;;;;13.55;83.22;102178.34;5016036;28;47180;-71
2021/10/26 08:58:26;;;;;;;;;20.00;16.75;;;;;13.55;82.98;102140.50;5032897;28;45923;-70
2021/10/26 09:00:58;;;;;;;;;21.25;18.75;;;;;14.20;82.10;102170.88;5040001;28;45398;-70
2021/10/26 09:03:26;;;;;;;;;18.25;16.25;;;;;14.30;80.79;102177.56;5036461;28;45738;-70
2021/10/26 09:05:53;;;;;;;;;23.00;17.50;;;;;14.32;80.66;102175.75;5034543;28;45724;-70
2021/10/26 09:08:21;;;;;;;;;19.00;16.00;;;;;14.42;81.10;102169.22;5030378;28;45531;-70
2021/10/26 09:10:47;;;;;;;;;18.50;13.75;;;;;14.43;79.73;102159.50;5029902;28;46014;-70
2021/10/26 09:19:16;;;;;;;;;13.25;9.00;;;;;18.33;71.79;102169.66;4929789;28;45308;-70
2021/10/26 09:21:57;;;;;;;;;15.75;12.50;;;;;17.92;71.91;102175.31;4913915;28;46137;-71
2021/10/26 09:24:23;;;;;;;;;10.75;10.75;;;;;18.56;72.50;102176.41;4926602;28;45845;-70
2021/10/26 09:26:55;;;;;;;;;15.25;11.75;;;;;20.22;70.71;102170.53;4913164;28;46168;-71
2021/10/26 09:29:39;;;;;;;;;11.75;9.75;;;;;20.80;67.88;102169.63;4929873;28;45871;-70
2021/10/26 09:32:07;;;;;;;;;11.75;11.25;;;;;21.58;66.05;102168.09;4920531;28;45636;-71
2021/10/26 09:34:48;;;;;;;;;14.50;14.00;;;;;23.27;65.36;102157.13;4929467;28;45535;-70
2021/10/26 09:37:15;;;;;;;;;11.75;11.00;;;;;25.39;60.46;102134.19;4929755;28;45593;-70
2021/10/26 09:39:58;;;;;;;;;12.75;12.50;;;;;27.43;57.17;102154.94;4931874;28;45771;-71
2021/10/26 09:42:25;;;;;;;;;8.25;8.25;;;;;28.66;53.59;102156.84;4927778;28;45810;-71
2021/10/26 09:45:01;;;;;;;;;9.00;7.50;;;;;29.86;51.14;102152.03;4935533;28;45478;-71
2021/10/26 09:47:28;;;;;;;;;8.75;8.00;;;;;30.34;48.03;102151.56;4935265;28;46181;-71
2021/10/26 09:49:59;;;;;;;;;10.75;9.00;;;;;30.56;46.30;102158.28;4937308;28;45434;-71
2021/10/26 09:52:36;;;;;;;;;5.75;5.75;;;;;30.46;45.87;102151.28;4947721;28;45501;-70
2021/10/26 09:55:25;;;;;;;;;9.75;8.00;;;;;30.01;45.76;102155.88;5035925;28;45686;-71
2021/10/26 09:58:00;;;;;;;;;7.50;7.00;;;;;30.04;45.78;102154.72;5036764;28;46723;-71
2021/10/26 10:00:29;;;;;;;;;7.75;7.75;;;;;29.75;45.70;102150.44;5036746;28;45486;-71
2021/10/26 10:03:24;;;;;;;;;6.50;6.25;;;;;28.99;44.82;102155.44;5036111;28;45449;-70
2021/10/26 10:06:00;;;;;;;;;7.75;7.00;;;;;28.34;44.37;102167.09;5034569;28;45585;-71
2021/10/26 10:08:30;;;;;;;;;27.75;24.50;;;;;27.31;46.98;102166.88;5022120;28;47263;-71
2021/10/26 10:11:05;;;;;;;;;6.00;6.00;;;;;26.62;45.69;102170.34;5033424;28;46439;-72
2021/10/26 10:13:30;;;;;;;;;6.00;6.00;;;;;26.25;46.64;102168.16;5019383;28;45453;-71
2021/10/26 10:15:57;;;;;;;;;3.75;3.75;;;;;26.20;46.88;102164.16;5047421;28;45586;-73
2021/10/26 10:18:24;;;;;;;;;5.50;5.50;;;;;26.01;46.81;102170.28;5040711;28;45490;-72
2021/10/26 10:20:54;;;;;;;;;5.00;5.00;;;;;25.60;47.64;102181.84;5036313;28;45537;-73
2021/10/26 10:23:23;;;;;;;;;7.00;4.75;;;;;25.06;48.11;102172.84;5039633;28;45660;-72
2021/10/26 10:25:52;;;;;;;;;6.50;5.25;;;;;24.44;48.25;102184.94;5036437;28;45664;-72
2021/10/26 10:28:18;;;;;;;;;7.00;5.00;;;;;23.87;49.42;102191.13;5018945;28;46290;-71
2021/10/26 10:30:44;;;;;;;;;6.50;6.50;;;;;23.30;49.60;102156.06;5035415;28;45765;-74
2021/10/26 10:33:11;;;;;;;;;6.75;5.50;;;;;22.92;49.52;102194.59;5037019;28;45501;-72
2021/10/26 10:35:38;;;;;;;;;6.50;6.50;;;;;22.40;50.75;102192.91;5028818;28;45618;-72
2021/10/26 10:38:06;;;;;;;;;4.00;4.00;;;;;22.00;51.48;102184.91;5033347;28;46144;-72
2021/10/26 10:40:32;;;;;;;;;7.75;5.25;;;;;21.93;52.68;102185.44;5035419;28;45632;-71
2021/10/26 10:42:59;;;;;;;;;5.00;5.00;;;;;22.30;50.30;102168.59;5037157;28;45439;-71
2021/10/26 10:45:33;;;;;;;;;7.00;5.50;;;;;22.40;50.96;102176.84;5040428;28;45398;-69
2021/10/26 10:48:00;;;;;;;;;4.50;4.00;;;;;22.19;51.87;102175.66;5045731;28;45385;-70
2021/10/26 10:50:38;;;;;;;;;4.75;4.50;;;;;22.08;51.11;102168.28;5047375;28;45594;-70
2021/10/26 10:53:05;;;;;;;;;4.25;4.00;;;;;22.02;52.21;102166.03;5038893;28;45450;-70
2021/10/26 10:55:30;;;;;;;;;4.25;3.25;;;;;22.05;52.48;102171.19;5036244;28;45583;-70
2021/10/26 10:57:55;;;;;;;;;5.75;5.00;;;;;21.79;52.35;102176.50;5039508;28;46188;-69
2021/10/26 11:00:25;;;;;;;;;7.00;5.50;;;;;21.39;52.95;102180.13;5019464;28;45424;-70
2021/10/26 11:02:55;;;;;;;;;6.00;4.25;;;;;21.00;53.31;102185.25;5036757;28;45536;-71
2021/10/26 11:05:36;;;;;;;;;4.25;3.25;;;;;20.63;53.77;102185.84;5035681;28;45332;-69
2021/10/26 11:08:10;;;;;;;;;7.00;6.00;;;;;20.22;54.27;102184.72;5033777;28;45781;-70
2021/10/26 11:10:50;;;;;;;;;6.50;5.00;;;;;19.93;55.29;102189.13;5035796;28;45768;-69
2021/10/26 11:13:23;;;;;;;;;4.50;4.50;;;;;19.65;55.79;102189.91;5032038;28;45505;-70
2021/10/26 11:15:53;;;;;;;;;3.75;3.75;;;;;19.33;56.06;102183.72;5032117;28;45486;-70
2021/10/26 11:18:34;;;;;;;;;7.00;6.00;;;;;19.18;57.16;102189.91;5030878;28;46313;-71
2021/10/26 11:21:08;;;;;;;;;6.75;5.00;;;;;19.00;57.21;102173.13;5029355;28;45501;-70